sensor_id;sensor_type;location;lat;lon;timestamp;P1;durP1;ratioP1;P2;durP2;ratioP2
33954;SDS011;20233;50.804;7.126;2023-04-09T00:01:48;33.13;;;24.38;;
33954;SDS011;20233;50.804;7.126;2023-04-09T00:04:14;33.53;;;24.67;;
33954;SDS011;20233;50.804;7.126;2023-04-09T00:06:40;33.10;;;24.90;;
33954;SDS011;20233;50.804;7.126;2023-04-09T00:09:05;38.67;;;26.65;;
33954;SDS011;20233;50.804;7.126;2023-04-09T00:11:31;34.88;;;24.23;;
33954;SDS011;20233;50.804;7.126;2023-04-09T00:13:57;33.15;;;23.27;;
33954;SDS011;20233;50.804;7.126;2023-04-09T00:16:23;35.35;;;24.92;;
33954;SDS011;20233;50.804;7.126;2023-04-09T00:18:48;34.10;;;24.50;;
33954;SDS011;20233;50.804;7.126;2023-04-09T00:21:14;34.10;;;23.92;;
33954;SDS011;20233;50.804;7.126;2023-04-09T00:23:40;32.13;;;23.95;;
33954;SDS011;20233;50.804;7.126;2023-04-09T00:26:06;32.90;;;24.40;;
33954;SDS011;20233;50.804;7.126;2023-04-09T00:28:31;31.02;;;23.08;;
33954;SDS011;20233;50.804;7.126;2023-04-09T00:31:00;32.53;;;23.70;;
33954;SDS011;20233;50.804;7.126;2023-04-09T00:33:26;31.17;;;23.02;;
33954;SDS011;20233;50.804;7.126;2023-04-09T00:35:51;36.45;;;23.00;;
33954;SDS011;20233;50.804;7.126;2023-04-09T00:38:17;34.53;;;23.30;;
33954;SDS011;20233;50.804;7.126;2023-04-09T00:40:42;28.52;;;22.90;;
33954;SDS011;20233;50.804;7.126;2023-04-09T00:43:08;35.85;;;23.60;;
33954;SDS011;20233;50.804;7.126;2023-04-09T00:45:35;33.35;;;23.73;;
33954;SDS011;20233;50.804;7.126;2023-04-09T00:48:00;30.50;;;20.80;;
33954;SDS011;20233;50.804;7.126;2023-04-09T00:50:26;33.35;;;23.25;;
33954;SDS011;20233;50.804;7.126;2023-04-09T00:52:52;33.13;;;23.20;;
33954;SDS011;20233;50.804;7.126;2023-04-09T00:55:17;31.38;;;22.60;;
33954;SDS011;20233;50.804;7.126;2023-04-09T00:57:45;30.73;;;22.70;;
33954;SDS011;20233;50.804;7.126;2023-04-09T01:00:11;35.55;;;21.73;;
33954;SDS011;20233;50.804;7.126;2023-04-09T01:02:37;32.67;;;23.40;;
33954;SDS011;20233;50.804;7.126;2023-04-09T01:05:04;35.75;;;23.48;;
33954;SDS011;20233;50.804;7.126;2023-04-09T01:07:44;32.88;;;24.00;;
33954;SDS011;20233;50.804;7.126;2023-04-09T01:10:27;31.75;;;23.77;;
33954;SDS011;20233;50.804;7.126;2023-04-09T01:15:29;31.95;;;23.13;;
33954;SDS011;20233;50.804;7.126;2023-04-09T01:18:07;32.72;;;22.15;;
33954;SDS011;20233;50.804;7.126;2023-04-09T01:20:38;32.90;;;23.52;;
33954;SDS011;20233;50.804;7.126;2023-04-09T01:28:55;31.73;;;23.75;;
33954;SDS011;20233;50.804;7.126;2023-04-09T01:31:31;30.98;;;23.45;;
33954;SDS011;20233;50.804;7.126;2023-04-09T01:34:03;32.33;;;23.08;;
33954;SDS011;20233;50.804;7.126;2023-04-09T01:36:32;31.52;;;22.42;;
33954;SDS011;20233;50.804;7.126;2023-04-09T01:39:00;33.22;;;23.23;;
33954;SDS011;20233;50.804;7.126;2023-04-09T01:41:26;32.65;;;22.95;;
33954;SDS011;20233;50.804;7.126;2023-04-09T01:43:54;35.08;;;22.02;;
33954;SDS011;20233;50.804;7.126;2023-04-09T01:46:21;33.90;;;23.80;;
33954;SDS011;20233;50.804;7.126;2023-04-09T01:48:48;32.38;;;22.40;;
33954;SDS011;20233;50.804;7.126;2023-04-09T01:51:14;33.50;;;22.98;;
33954;SDS011;20233;50.804;7.126;2023-04-09T01:53:41;37.08;;;23.75;;
33954;SDS011;20233;50.804;7.126;2023-04-09T01:56:07;36.05;;;23.83;;
33954;SDS011;20233;50.804;7.126;2023-04-09T01:58:33;35.15;;;24.73;;
33954;SDS011;20233;50.804;7.126;2023-04-09T02:01:04;35.05;;;23.33;;
33954;SDS011;20233;50.804;7.126;2023-04-09T02:03:39;33.53;;;23.23;;
33954;SDS011;20233;50.804;7.126;2023-04-09T02:09:07;37.00;;;25.45;;
33954;SDS011;20233;50.804;7.126;2023-04-09T02:11:34;38.35;;;26.15;;
33954;SDS011;20233;50.804;7.126;2023-04-09T02:14:02;37.00;;;24.13;;
33954;SDS011;20233;50.804;7.126;2023-04-09T02:16:29;37.83;;;25.40;;
33954;SDS011;20233;50.804;7.126;2023-04-09T02:18:56;37.35;;;25.35;;
33954;SDS011;20233;50.804;7.126;2023-04-09T02:21:25;38.72;;;26.15;;
33954;SDS011;20233;50.804;7.126;2023-04-09T02:23:52;34.85;;;25.98;;
33954;SDS011;20233;50.804;7.126;2023-04-09T02:26:18;35.67;;;25.23;;
33954;SDS011;20233;50.804;7.126;2023-04-09T02:28:44;38.40;;;27.15;;
33954;SDS011;20233;50.804;7.126;2023-04-09T02:31:09;38.53;;;25.65;;
33954;SDS011;20233;50.804;7.126;2023-04-09T02:33:35;35.28;;;24.88;;
33954;SDS011;20233;50.804;7.126;2023-04-09T02:36:00;38.03;;;25.17;;
33954;SDS011;20233;50.804;7.126;2023-04-09T02:38:26;37.00;;;25.00;;
33954;SDS011;20233;50.804;7.126;2023-04-09T02:40:52;34.80;;;25.00;;
33954;SDS011;20233;50.804;7.126;2023-04-09T02:43:17;34.35;;;24.55;;
33954;SDS011;20233;50.804;7.126;2023-04-09T02:45:43;33.85;;;25.92;;
33954;SDS011;20233;50.804;7.126;2023-04-09T02:48:08;33.03;;;24.13;;
33954;SDS011;20233;50.804;7.126;2023-04-09T02:50:34;37.38;;;24.95;;
33954;SDS011;20233;50.804;7.126;2023-04-09T02:52:59;36.58;;;24.83;;
33954;SDS011;20233;50.804;7.126;2023-04-09T02:55:25;35.45;;;26.13;;
33954;SDS011;20233;50.804;7.126;2023-04-09T02:57:50;36.90;;;24.10;;
33954;SDS011;20233;50.804;7.126;2023-04-09T03:00:16;34.78;;;24.15;;
33954;SDS011;20233;50.804;7.126;2023-04-09T03:02:41;39.35;;;25.50;;
33954;SDS011;20233;50.804;7.126;2023-04-09T03:05:08;40.20;;;26.08;;
33954;SDS011;20233;50.804;7.126;2023-04-09T03:07:34;37.67;;;25.05;;
33954;SDS011;20233;50.804;7.126;2023-04-09T03:09:59;35.08;;;25.88;;
33954;SDS011;20233;50.804;7.126;2023-04-09T03:12:25;34.38;;;24.27;;
33954;SDS011;20233;50.804;7.126;2023-04-09T03:14:51;39.45;;;25.17;;
33954;SDS011;20233;50.804;7.126;2023-04-09T03:17:16;37.95;;;24.40;;
33954;SDS011;20233;50.804;7.126;2023-04-09T03:19:42;36.38;;;24.77;;
33954;SDS011;20233;50.804;7.126;2023-04-09T03:22:07;36.67;;;23.90;;
33954;SDS011;20233;50.804;7.126;2023-04-09T03:24:33;34.88;;;23.88;;
33954;SDS011;20233;50.804;7.126;2023-04-09T03:26:58;33.50;;;23.40;;
33954;SDS011;20233;50.804;7.126;2023-04-09T03:29:24;35.38;;;24.90;;
33954;SDS011;20233;50.804;7.126;2023-04-09T03:31:50;33.40;;;24.02;;
33954;SDS011;20233;50.804;7.126;2023-04-09T03:34:15;35.85;;;25.33;;
33954;SDS011;20233;50.804;7.126;2023-04-09T03:36:41;35.40;;;25.67;;
33954;SDS011;20233;50.804;7.126;2023-04-09T03:39:06;36.70;;;24.13;;
33954;SDS011;20233;50.804;7.126;2023-04-09T03:41:32;36.55;;;24.75;;
33954;SDS011;20233;50.804;7.126;2023-04-09T03:43:57;35.80;;;23.65;;
33954;SDS011;20233;50.804;7.126;2023-04-09T03:46:23;35.85;;;24.65;;
33954;SDS011;20233;50.804;7.126;2023-04-09T03:48:49;34.08;;;23.15;;
33954;SDS011;20233;50.804;7.126;2023-04-09T03:51:15;31.65;;;22.42;;
33954;SDS011;20233;50.804;7.126;2023-04-09T03:53:42;34.53;;;23.08;;
33954;SDS011;20233;50.804;7.126;2023-04-09T03:56:08;35.30;;;24.17;;
33954;SDS011;20233;50.804;7.126;2023-04-09T03:58:35;34.38;;;23.58;;
33954;SDS011;20233;50.804;7.126;2023-04-09T04:01:01;32.28;;;21.98;;
33954;SDS011;20233;50.804;7.126;2023-04-09T04:03:27;33.45;;;22.05;;
33954;SDS011;20233;50.804;7.126;2023-04-09T04:05:53;34.55;;;22.63;;
33954;SDS011;20233;50.804;7.126;2023-04-09T04:08:18;34.42;;;20.27;;
33954;SDS011;20233;50.804;7.126;2023-04-09T04:10:44;33.40;;;23.05;;
33954;SDS011;20233;50.804;7.126;2023-04-09T04:13:09;28.27;;;20.48;;
33954;SDS011;20233;50.804;7.126;2023-04-09T04:15:38;30.77;;;21.42;;
33954;SDS011;20233;50.804;7.126;2023-04-09T04:18:06;34.55;;;22.65;;
33954;SDS011;20233;50.804;7.126;2023-04-09T04:20:32;33.50;;;22.15;;
33954;SDS011;20233;50.804;7.126;2023-04-09T04:22:58;32.47;;;21.40;;
33954;SDS011;20233;50.804;7.126;2023-04-09T04:25:23;33.72;;;20.38;;
33954;SDS011;20233;50.804;7.126;2023-04-09T04:27:49;31.08;;;21.42;;
33954;SDS011;20233;50.804;7.126;2023-04-09T04:30:15;32.88;;;21.88;;
33954;SDS011;20233;50.804;7.126;2023-04-09T04:32:40;35.08;;;21.38;;
33954;SDS011;20233;50.804;7.126;2023-04-09T04:35:06;29.02;;;20.00;;
33954;SDS011;20233;50.804;7.126;2023-04-09T04:37:32;30.15;;;21.48;;
33954;SDS011;20233;50.804;7.126;2023-04-09T04:39:59;31.60;;;21.50;;
33954;SDS011;20233;50.804;7.126;2023-04-09T04:42:25;31.30;;;21.40;;
33954;SDS011;20233;50.804;7.126;2023-04-09T04:44:51;29.02;;;20.63;;
33954;SDS011;20233;50.804;7.126;2023-04-09T04:47:16;32.15;;;20.85;;
33954;SDS011;20233;50.804;7.126;2023-04-09T04:49:43;28.15;;;19.92;;
33954;SDS011;20233;50.804;7.126;2023-04-09T04:52:09;30.45;;;20.15;;
33954;SDS011;20233;50.804;7.126;2023-04-09T04:54:34;30.10;;;20.00;;
33954;SDS011;20233;50.804;7.126;2023-04-09T04:57:00;30.63;;;20.27;;
33954;SDS011;20233;50.804;7.126;2023-04-09T04:59:26;30.77;;;19.95;;
33954;SDS011;20233;50.804;7.126;2023-04-09T05:01:52;31.80;;;21.25;;
33954;SDS011;20233;50.804;7.126;2023-04-09T05:04:17;31.35;;;20.13;;
33954;SDS011;20233;50.804;7.126;2023-04-09T05:06:43;28.25;;;19.30;;
33954;SDS011;20233;50.804;7.126;2023-04-09T05:09:08;29.58;;;19.13;;
33954;SDS011;20233;50.804;7.126;2023-04-09T05:11:34;30.77;;;20.27;;
33954;SDS011;20233;50.804;7.126;2023-04-09T05:13:59;29.10;;;19.02;;
33954;SDS011;20233;50.804;7.126;2023-04-09T05:16:25;29.42;;;18.92;;
33954;SDS011;20233;50.804;7.126;2023-04-09T05:18:51;28.33;;;19.23;;
33954;SDS011;20233;50.804;7.126;2023-04-09T05:21:19;31.75;;;19.20;;
33954;SDS011;20233;50.804;7.126;2023-04-09T05:23:44;28.42;;;19.73;;
33954;SDS011;20233;50.804;7.126;2023-04-09T05:26:10;31.00;;;19.02;;
33954;SDS011;20233;50.804;7.126;2023-04-09T05:28:36;27.15;;;18.48;;
33954;SDS011;20233;50.804;7.126;2023-04-09T05:31:01;27.42;;;17.88;;
33954;SDS011;20233;50.804;7.126;2023-04-09T05:33:27;29.35;;;18.88;;
33954;SDS011;20233;50.804;7.126;2023-04-09T05:35:53;27.35;;;17.98;;
33954;SDS011;20233;50.804;7.126;2023-04-09T05:38:19;23.65;;;17.70;;
33954;SDS011;20233;50.804;7.126;2023-04-09T05:40:45;27.38;;;18.23;;
33954;SDS011;20233;50.804;7.126;2023-04-09T05:43:12;29.05;;;19.70;;
33954;SDS011;20233;50.804;7.126;2023-04-09T05:45:38;25.55;;;17.30;;
33954;SDS011;20233;50.804;7.126;2023-04-09T05:48:03;26.83;;;18.05;;
33954;SDS011;20233;50.804;7.126;2023-04-09T05:50:29;25.58;;;17.60;;
33954;SDS011;20233;50.804;7.126;2023-04-09T05:52:55;28.10;;;17.63;;
33954;SDS011;20233;50.804;7.126;2023-04-09T05:55:21;26.98;;;18.15;;
33954;SDS011;20233;50.804;7.126;2023-04-09T05:57:47;24.52;;;17.52;;
33954;SDS011;20233;50.804;7.126;2023-04-09T06:00:12;27.25;;;18.85;;
33954;SDS011;20233;50.804;7.126;2023-04-09T06:02:39;25.80;;;16.33;;
33954;SDS011;20233;50.804;7.126;2023-04-09T06:05:05;25.35;;;17.33;;
33954;SDS011;20233;50.804;7.126;2023-04-09T06:07:30;29.02;;;17.05;;
33954;SDS011;20233;50.804;7.126;2023-04-09T06:09:56;24.75;;;17.45;;
33954;SDS011;20233;50.804;7.126;2023-04-09T06:12:22;25.13;;;17.00;;
33954;SDS011;20233;50.804;7.126;2023-04-09T06:14:49;24.35;;;16.33;;
33954;SDS011;20233;50.804;7.126;2023-04-09T06:17:15;25.55;;;16.98;;
33954;SDS011;20233;50.804;7.126;2023-04-09T06:19:41;24.15;;;15.85;;
33954;SDS011;20233;50.804;7.126;2023-04-09T06:22:08;27.30;;;15.93;;
33954;SDS011;20233;50.804;7.126;2023-04-09T06:24:35;23.42;;;15.07;;
33954;SDS011;20233;50.804;7.126;2023-04-09T06:27:00;25.05;;;16.42;;
33954;SDS011;20233;50.804;7.126;2023-04-09T06:29:26;23.10;;;14.20;;
33954;SDS011;20233;50.804;7.126;2023-04-09T06:31:52;24.15;;;15.13;;
33954;SDS011;20233;50.804;7.126;2023-04-09T06:34:18;24.45;;;15.18;;
33954;SDS011;20233;50.804;7.126;2023-04-09T06:36:43;21.50;;;14.63;;
33954;SDS011;20233;50.804;7.126;2023-04-09T06:39:09;21.73;;;13.85;;
33954;SDS011;20233;50.804;7.126;2023-04-09T06:41:35;19.90;;;13.55;;
33954;SDS011;20233;50.804;7.126;2023-04-09T06:44:01;21.73;;;13.65;;
33954;SDS011;20233;50.804;7.126;2023-04-09T06:46:26;20.13;;;13.48;;
33954;SDS011;20233;50.804;7.126;2023-04-09T06:48:52;19.52;;;12.65;;
33954;SDS011;20233;50.804;7.126;2023-04-09T06:51:18;21.60;;;13.30;;
33954;SDS011;20233;50.804;7.126;2023-04-09T06:53:43;20.05;;;12.75;;
33954;SDS011;20233;50.804;7.126;2023-04-09T06:56:09;21.85;;;12.52;;
33954;SDS011;20233;50.804;7.126;2023-04-09T06:58:35;19.77;;;11.90;;
33954;SDS011;20233;50.804;7.126;2023-04-09T07:01:01;18.75;;;11.50;;
33954;SDS011;20233;50.804;7.126;2023-04-09T07:03:27;15.77;;;10.48;;
33954;SDS011;20233;50.804;7.126;2023-04-09T07:05:53;15.82;;;10.35;;
33954;SDS011;20233;50.804;7.126;2023-04-09T07:08:19;18.52;;;11.35;;
33954;SDS011;20233;50.804;7.126;2023-04-09T07:10:46;17.80;;;10.18;;
33954;SDS011;20233;50.804;7.126;2023-04-09T07:13:12;15.68;;;10.23;;
33954;SDS011;20233;50.804;7.126;2023-04-09T07:15:38;18.35;;;10.85;;
33954;SDS011;20233;50.804;7.126;2023-04-09T07:18:03;18.25;;;11.30;;
33954;SDS011;20233;50.804;7.126;2023-04-09T07:20:29;16.95;;;10.32;;
33954;SDS011;20233;50.804;7.126;2023-04-09T07:22:54;19.27;;;11.50;;
33954;SDS011;20233;50.804;7.126;2023-04-09T07:25:20;17.65;;;11.07;;
33954;SDS011;20233;50.804;7.126;2023-04-09T07:27:46;15.30;;;10.43;;
33954;SDS011;20233;50.804;7.126;2023-04-09T07:30:12;17.27;;;10.40;;
33954;SDS011;20233;50.804;7.126;2023-04-09T07:32:37;15.68;;;9.52;;
33954;SDS011;20233;50.804;7.126;2023-04-09T07:35:05;17.00;;;10.27;;
33954;SDS011;20233;50.804;7.126;2023-04-09T07:37:33;15.10;;;9.45;;
33954;SDS011;20233;50.804;7.126;2023-04-09T07:39:59;15.52;;;9.48;;
33954;SDS011;20233;50.804;7.126;2023-04-09T07:42:25;16.70;;;9.35;;
33954;SDS011;20233;50.804;7.126;2023-04-09T07:44:52;14.43;;;8.82;;
33954;SDS011;20233;50.804;7.126;2023-04-09T07:47:17;15.65;;;9.15;;
33954;SDS011;20233;50.804;7.126;2023-04-09T07:49:43;15.70;;;9.43;;
33954;SDS011;20233;50.804;7.126;2023-04-09T07:52:08;15.32;;;9.30;;
33954;SDS011;20233;50.804;7.126;2023-04-09T07:54:34;13.48;;;9.15;;
33954;SDS011;20233;50.804;7.126;2023-04-09T07:57:00;16.50;;;9.80;;
33954;SDS011;20233;50.804;7.126;2023-04-09T07:59:26;16.17;;;9.75;;
33954;SDS011;20233;50.804;7.126;2023-04-09T08:01:52;15.80;;;9.35;;
33954;SDS011;20233;50.804;7.126;2023-04-09T08:04:18;17.52;;;9.80;;
33954;SDS011;20233;50.804;7.126;2023-04-09T08:06:44;21.17;;;11.30;;
33954;SDS011;20233;50.804;7.126;2023-04-09T08:09:16;15.88;;;8.85;;
33954;SDS011;20233;50.804;7.126;2023-04-09T08:11:42;17.40;;;10.15;;
33954;SDS011;20233;50.804;7.126;2023-04-09T08:14:09;15.65;;;9.63;;
33954;SDS011;20233;50.804;7.126;2023-04-09T08:16:37;15.60;;;9.63;;
33954;SDS011;20233;50.804;7.126;2023-04-09T08:19:05;16.52;;;10.00;;
33954;SDS011;20233;50.804;7.126;2023-04-09T08:21:31;14.07;;;8.30;;
33954;SDS011;20233;50.804;7.126;2023-04-09T08:23:56;13.02;;;8.10;;
33954;SDS011;20233;50.804;7.126;2023-04-09T08:26:25;15.05;;;9.20;;
33954;SDS011;20233;50.804;7.126;2023-04-09T08:28:50;17.30;;;8.70;;
33954;SDS011;20233;50.804;7.126;2023-04-09T08:31:16;11.35;;;7.32;;
33954;SDS011;20233;50.804;7.126;2023-04-09T08:33:42;13.48;;;8.05;;
33954;SDS011;20233;50.804;7.126;2023-04-09T08:36:07;11.48;;;7.55;;
33954;SDS011;20233;50.804;7.126;2023-04-09T08:38:35;12.77;;;7.88;;
33954;SDS011;20233;50.804;7.126;2023-04-09T08:41:01;14.52;;;9.30;;
33954;SDS011;20233;50.804;7.126;2023-04-09T08:43:26;11.85;;;7.57;;
33954;SDS011;20233;50.804;7.126;2023-04-09T08:45:54;9.57;;;6.22;;
33954;SDS011;20233;50.804;7.126;2023-04-09T08:48:21;10.65;;;5.97;;
33954;SDS011;20233;50.804;7.126;2023-04-09T08:50:49;8.77;;;5.15;;
33954;SDS011;20233;50.804;7.126;2023-04-09T08:53:15;8.68;;;5.30;;
33954;SDS011;20233;50.804;7.126;2023-04-09T08:55:46;8.18;;;4.68;;
33954;SDS011;20233;50.804;7.126;2023-04-09T08:58:11;8.70;;;5.55;;
33954;SDS011;20233;50.804;7.126;2023-04-09T09:00:37;8.00;;;4.53;;
33954;SDS011;20233;50.804;7.126;2023-04-09T09:03:04;7.47;;;4.70;;
33954;SDS011;20233;50.804;7.126;2023-04-09T09:05:37;5.90;;;4.05;;
33954;SDS011;20233;50.804;7.126;2023-04-09T09:08:05;7.95;;;4.43;;
33954;SDS011;20233;50.804;7.126;2023-04-09T09:10:38;6.60;;;4.60;;
33954;SDS011;20233;50.804;7.126;2023-04-09T09:13:24;10.00;;;5.13;;
33954;SDS011;20233;50.804;7.126;2023-04-09T09:15:54;8.63;;;5.10;;
33954;SDS011;20233;50.804;7.126;2023-04-09T09:18:40;8.52;;;5.47;;
33954;SDS011;20233;50.804;7.126;2023-04-09T09:21:13;7.13;;;4.97;;
33954;SDS011;20233;50.804;7.126;2023-04-09T09:23:41;9.73;;;6.43;;
33954;SDS011;20233;50.804;7.126;2023-04-09T09:26:14;11.77;;;6.25;;
33954;SDS011;20233;50.804;7.126;2023-04-09T09:28:45;9.43;;;6.15;;
33954;SDS011;20233;50.804;7.126;2023-04-09T09:31:12;9.23;;;6.22;;
33954;SDS011;20233;50.804;7.126;2023-04-09T09:33:39;10.25;;;6.90;;
33954;SDS011;20233;50.804;7.126;2023-04-09T09:36:04;10.57;;;6.65;;
33954;SDS011;20233;50.804;7.126;2023-04-09T09:38:31;12.70;;;7.63;;
33954;SDS011;20233;50.804;7.126;2023-04-09T09:40:57;13.27;;;7.65;;
33954;SDS011;20233;50.804;7.126;2023-04-09T09:43:23;11.25;;;6.38;;
33954;SDS011;20233;50.804;7.126;2023-04-09T09:45:50;12.10;;;7.50;;
33954;SDS011;20233;50.804;7.126;2023-04-09T09:48:17;11.52;;;7.40;;
33954;SDS011;20233;50.804;7.126;2023-04-09T09:50:42;11.05;;;6.68;;
33954;SDS011;20233;50.804;7.126;2023-04-09T09:53:11;10.73;;;7.47;;
33954;SDS011;20233;50.804;7.126;2023-04-09T09:58:16;13.30;;;8.27;;
33954;SDS011;20233;50.804;7.126;2023-04-09T10:00:47;13.45;;;8.25;;
33954;SDS011;20233;50.804;7.126;2023-04-09T10:03:19;11.55;;;7.82;;
33954;SDS011;20233;50.804;7.126;2023-04-09T10:05:47;11.05;;;7.60;;
33954;SDS011;20233;50.804;7.126;2023-04-09T10:08:13;8.88;;;6.50;;
33954;SDS011;20233;50.804;7.126;2023-04-09T10:10:41;10.18;;;5.93;;
33954;SDS011;20233;50.804;7.126;2023-04-09T10:13:12;9.23;;;5.90;;
33954;SDS011;20233;50.804;7.126;2023-04-09T10:15:42;9.65;;;6.40;;
33954;SDS011;20233;50.804;7.126;2023-04-09T10:18:09;9.55;;;6.30;;
33954;SDS011;20233;50.804;7.126;2023-04-09T10:20:38;10.70;;;5.80;;
33954;SDS011;20233;50.804;7.126;2023-04-09T10:23:10;11.88;;;7.10;;
33954;SDS011;20233;50.804;7.126;2023-04-09T10:25:45;8.88;;;5.78;;
33954;SDS011;20233;50.804;7.126;2023-04-09T10:28:17;9.35;;;6.40;;
33954;SDS011;20233;50.804;7.126;2023-04-09T10:30:43;9.48;;;6.13;;
33954;SDS011;20233;50.804;7.126;2023-04-09T10:33:15;7.65;;;5.38;;
33954;SDS011;20233;50.804;7.126;2023-04-09T10:35:46;8.20;;;5.82;;
33954;SDS011;20233;50.804;7.126;2023-04-09T10:38:13;8.60;;;5.78;;
33954;SDS011;20233;50.804;7.126;2023-04-09T10:40:46;9.05;;;6.13;;
33954;SDS011;20233;50.804;7.126;2023-04-09T10:43:18;9.27;;;5.88;;
33954;SDS011;20233;50.804;7.126;2023-04-09T10:45:45;46.15;;;42.08;;
33954;SDS011;20233;50.804;7.126;2023-04-09T10:48:18;13.80;;;8.95;;
33954;SDS011;20233;50.804;7.126;2023-04-09T10:50:44;10.10;;;6.65;;
33954;SDS011;20233;50.804;7.126;2023-04-09T10:53:23;10.68;;;6.85;;
33954;SDS011;20233;50.804;7.126;2023-04-09T10:55:51;8.32;;;6.20;;
33954;SDS011;20233;50.804;7.126;2023-04-09T10:58:17;9.02;;;6.43;;
33954;SDS011;20233;50.804;7.126;2023-04-09T11:00:47;8.23;;;5.93;;
33954;SDS011;20233;50.804;7.126;2023-04-09T11:05:49;7.95;;;4.70;;
33954;SDS011;20233;50.804;7.126;2023-04-09T11:08:22;7.70;;;5.35;;
33954;SDS011;20233;50.804;7.126;2023-04-09T11:10:47;8.48;;;5.72;;
33954;SDS011;20233;50.804;7.126;2023-04-09T11:13:13;11.40;;;7.45;;
33954;SDS011;20233;50.804;7.126;2023-04-09T11:15:43;15.95;;;10.60;;
33954;SDS011;20233;50.804;7.126;2023-04-09T11:18:13;11.65;;;7.18;;
33954;SDS011;20233;50.804;7.126;2023-04-09T11:20:40;14.23;;;9.20;;
33954;SDS011;20233;50.804;7.126;2023-04-09T11:23:05;9.45;;;6.25;;
33954;SDS011;20233;50.804;7.126;2023-04-09T11:25:31;8.95;;;6.45;;
33954;SDS011;20233;50.804;7.126;2023-04-09T11:27:59;10.27;;;6.63;;
33954;SDS011;20233;50.804;7.126;2023-04-09T11:30:27;9.43;;;6.10;;
33954;SDS011;20233;50.804;7.126;2023-04-09T11:32:53;8.18;;;5.30;;
33954;SDS011;20233;50.804;7.126;2023-04-09T11:35:20;11.45;;;7.45;;
33954;SDS011;20233;50.804;7.126;2023-04-09T11:37:47;6.95;;;4.72;;
33954;SDS011;20233;50.804;7.126;2023-04-09T11:40:17;10.90;;;6.97;;
33954;SDS011;20233;50.804;7.126;2023-04-09T11:42:51;8.60;;;5.30;;
33954;SDS011;20233;50.804;7.126;2023-04-09T11:45:20;13.70;;;10.50;;
33954;SDS011;20233;50.804;7.126;2023-04-09T11:47:48;32.42;;;25.77;;
33954;SDS011;20233;50.804;7.126;2023-04-09T11:50:14;63.22;;;37.05;;
33954;SDS011;20233;50.804;7.126;2023-04-09T11:52:40;35.20;;;25.25;;
33954;SDS011;20233;50.804;7.126;2023-04-09T11:55:07;7.60;;;4.90;;
33954;SDS011;20233;50.804;7.126;2023-04-09T11:57:45;8.10;;;5.38;;
33954;SDS011;20233;50.804;7.126;2023-04-09T12:00:12;7.70;;;4.93;;
33954;SDS011;20233;50.804;7.126;2023-04-09T12:02:40;7.70;;;4.95;;
33954;SDS011;20233;50.804;7.126;2023-04-09T12:05:07;7.35;;;4.93;;
33954;SDS011;20233;50.804;7.126;2023-04-09T12:07:34;7.68;;;5.55;;
33954;SDS011;20233;50.804;7.126;2023-04-09T12:10:02;7.03;;;4.75;;
33954;SDS011;20233;50.804;7.126;2023-04-09T12:12:30;6.70;;;5.07;;
33954;SDS011;20233;50.804;7.126;2023-04-09T12:14:56;6.93;;;4.70;;
33954;SDS011;20233;50.804;7.126;2023-04-09T12:17:23;7.53;;;5.00;;
33954;SDS011;20233;50.804;7.126;2023-04-09T12:19:48;6.15;;;4.32;;
33954;SDS011;20233;50.804;7.126;2023-04-09T12:22:14;7.20;;;5.30;;
33954;SDS011;20233;50.804;7.126;2023-04-09T12:24:40;7.63;;;4.70;;
33954;SDS011;20233;50.804;7.126;2023-04-09T12:27:05;6.10;;;4.60;;
33954;SDS011;20233;50.804;7.126;2023-04-09T12:29:31;6.95;;;4.80;;
33954;SDS011;20233;50.804;7.126;2023-04-09T12:31:57;6.65;;;4.68;;
33954;SDS011;20233;50.804;7.126;2023-04-09T12:34:24;6.97;;;4.60;;
33954;SDS011;20233;50.804;7.126;2023-04-09T12:36:51;6.28;;;4.35;;
33954;SDS011;20233;50.804;7.126;2023-04-09T12:39:16;6.25;;;4.72;;
33954;SDS011;20233;50.804;7.126;2023-04-09T12:41:44;10.10;;;4.97;;
33954;SDS011;20233;50.804;7.126;2023-04-09T12:44:10;7.88;;;4.43;;
33954;SDS011;20233;50.804;7.126;2023-04-09T12:46:35;6.18;;;4.15;;
33954;SDS011;20233;50.804;7.126;2023-04-09T12:49:01;5.88;;;4.25;;
33954;SDS011;20233;50.804;7.126;2023-04-09T12:51:26;6.90;;;4.25;;
33954;SDS011;20233;50.804;7.126;2023-04-09T12:53:52;7.35;;;4.68;;
33954;SDS011;20233;50.804;7.126;2023-04-09T12:56:18;5.35;;;4.10;;
33954;SDS011;20233;50.804;7.126;2023-04-09T12:58:43;5.30;;;3.95;;
33954;SDS011;20233;50.804;7.126;2023-04-09T13:01:09;7.28;;;4.22;;
33954;SDS011;20233;50.804;7.126;2023-04-09T13:03:34;6.03;;;4.10;;
33954;SDS011;20233;50.804;7.126;2023-04-09T13:06:00;7.10;;;4.40;;
33954;SDS011;20233;50.804;7.126;2023-04-09T13:08:26;5.70;;;4.10;;
33954;SDS011;20233;50.804;7.126;2023-04-09T13:10:51;6.90;;;4.18;;
33954;SDS011;20233;50.804;7.126;2023-04-09T13:13:17;6.18;;;3.80;;
33954;SDS011;20233;50.804;7.126;2023-04-09T13:15:43;5.30;;;3.72;;
33954;SDS011;20233;50.804;7.126;2023-04-09T13:18:09;5.78;;;4.05;;
33954;SDS011;20233;50.804;7.126;2023-04-09T13:20:38;7.05;;;4.72;;
33954;SDS011;20233;50.804;7.126;2023-04-09T13:23:04;6.65;;;4.65;;
33954;SDS011;20233;50.804;7.126;2023-04-09T13:25:30;5.43;;;4.00;;
33954;SDS011;20233;50.804;7.126;2023-04-09T13:27:55;5.65;;;4.13;;
33954;SDS011;20233;50.804;7.126;2023-04-09T13:30:21;6.30;;;5.03;;
33954;SDS011;20233;50.804;7.126;2023-04-09T13:32:47;7.13;;;5.18;;
33954;SDS011;20233;50.804;7.126;2023-04-09T13:35:13;7.57;;;5.28;;
33954;SDS011;20233;50.804;7.126;2023-04-09T13:37:38;6.75;;;4.10;;
33954;SDS011;20233;50.804;7.126;2023-04-09T13:40:04;7.18;;;5.55;;
33954;SDS011;20233;50.804;7.126;2023-04-09T13:42:32;4.88;;;3.60;;
33954;SDS011;20233;50.804;7.126;2023-04-09T13:44:58;6.18;;;3.67;;
33954;SDS011;20233;50.804;7.126;2023-04-09T13:47:24;5.18;;;3.88;;
33954;SDS011;20233;50.804;7.126;2023-04-09T13:49:49;5.18;;;3.65;;
33954;SDS011;20233;50.804;7.126;2023-04-09T13:52:18;5.03;;;3.70;;
33954;SDS011;20233;50.804;7.126;2023-04-09T13:54:43;4.82;;;3.50;;
33954;SDS011;20233;50.804;7.126;2023-04-09T13:57:09;5.93;;;4.38;;
33954;SDS011;20233;50.804;7.126;2023-04-09T13:59:35;6.97;;;4.32;;
33954;SDS011;20233;50.804;7.126;2023-04-09T14:02:02;6.40;;;3.47;;
33954;SDS011;20233;50.804;7.126;2023-04-09T14:04:29;6.20;;;4.00;;
33954;SDS011;20233;50.804;7.126;2023-04-09T14:06:55;5.63;;;4.30;;
33954;SDS011;20233;50.804;7.126;2023-04-09T14:09:24;5.50;;;3.95;;
33954;SDS011;20233;50.804;7.126;2023-04-09T14:11:50;4.88;;;3.72;;
33954;SDS011;20233;50.804;7.126;2023-04-09T14:14:15;5.80;;;3.35;;
33954;SDS011;20233;50.804;7.126;2023-04-09T14:16:41;4.80;;;3.38;;
33954;SDS011;20233;50.804;7.126;2023-04-09T14:19:07;4.65;;;3.50;;
33954;SDS011;20233;50.804;7.126;2023-04-09T14:21:34;4.43;;;3.33;;
33954;SDS011;20233;50.804;7.126;2023-04-09T14:23:59;6.22;;;3.67;;
33954;SDS011;20233;50.804;7.126;2023-04-09T14:26:25;5.60;;;3.97;;
33954;SDS011;20233;50.804;7.126;2023-04-09T14:28:52;6.00;;;4.07;;
33954;SDS011;20233;50.804;7.126;2023-04-09T14:31:18;6.35;;;3.53;;
33954;SDS011;20233;50.804;7.126;2023-04-09T14:33:45;4.07;;;3.25;;
33954;SDS011;20233;50.804;7.126;2023-04-09T14:36:11;3.88;;;2.83;;
33954;SDS011;20233;50.804;7.126;2023-04-09T14:38:37;5.22;;;3.10;;
33954;SDS011;20233;50.804;7.126;2023-04-09T14:41:02;5.85;;;4.15;;
33954;SDS011;20233;50.804;7.126;2023-04-09T14:43:28;4.18;;;3.33;;
33954;SDS011;20233;50.804;7.126;2023-04-09T14:45:53;4.57;;;3.20;;